createdAt,value
2019-02-19T00:00:46.482Z,5.69
2019-02-19T00:01:46.480Z,5.70
2019-02-19T00:02:46.459Z,5.65
2019-02-19T00:03:46.462Z,5.62
2019-02-19T00:04:46.450Z,5.62
2019-02-19T00:05:46.455Z,5.69
2019-02-19T00:06:46.489Z,5.65
2019-02-19T00:07:46.421Z,5.70
2019-02-19T00:08:46.401Z,5.67
2019-02-19T00:09:46.387Z,5.69
2019-02-19T00:10:46.375Z,5.66
2019-02-19T00:11:46.406Z,5.60
2019-02-19T00:12:46.509Z,5.56
2019-02-19T00:13:46.358Z,5.60
2019-02-19T00:14:46.339Z,5.59
2019-02-19T00:15:46.339Z,5.62
2019-02-19T00:16:46.319Z,5.60
2019-02-19T00:17:46.310Z,5.58
2019-02-19T00:18:46.519Z,5.52
2019-02-19T00:19:46.323Z,5.55
2019-02-19T00:20:46.276Z,5.62
2019-02-19T00:21:46.257Z,5.59
2019-02-19T00:22:46.255Z,5.52
2019-02-19T00:23:46.243Z,5.63
2019-02-19T00:24:46.263Z,5.52
2019-02-19T00:25:46.227Z,5.52
2019-02-19T00:26:46.215Z,5.59
2019-02-19T00:27:46.195Z,5.59
2019-02-19T00:28:46.187Z,5.59
2019-02-19T00:29:46.183Z,5.69
2019-02-19T00:30:46.201Z,5.74
2019-02-19T00:31:46.155Z,5.70
2019-02-19T00:32:46.152Z,5.65
2019-02-19T00:33:46.131Z,5.73
2019-02-19T00:34:46.125Z,5.62
2019-02-19T00:35:46.134Z,5.66
2019-02-19T00:36:46.130Z,5.65
2019-02-19T00:37:46.134Z,5.73
2019-02-19T00:38:46.087Z,5.65
2019-02-19T00:39:46.074Z,5.62
2019-02-19T00:40:46.059Z,5.62
2019-02-19T00:41:46.062Z,5.65
2019-02-19T00:42:46.068Z,5.65
2019-02-19T00:43:46.041Z,5.60
2019-02-19T00:44:46.033Z,5.55
2019-02-19T00:45:46.012Z,5.52
2019-02-19T00:46:46.001Z,5.49
2019-02-19T00:47:46.011Z,5.48
2019-02-19T00:48:45.979Z,5.40
2019-02-19T00:49:46.016Z,5.40
2019-02-19T00:50:45.959Z,5.37
2019-02-19T00:51:45.941Z,5.38
2019-02-19T00:52:45.935Z,5.40
2019-02-19T00:53:45.935Z,5.37
2019-02-19T00:54:45.908Z,5.37
2019-02-19T00:55:45.923Z,5.38
2019-02-19T00:56:45.904Z,5.26
2019-02-19T00:57:45.898Z,5.23
2019-02-19T00:58:45.883Z,5.27
2019-02-19T00:59:45.879Z,5.24
2019-02-19T01:00:45.885Z,5.19
2019-02-19T01:01:45.845Z,5.20
2019-02-19T01:02:45.832Z,5.22
2019-02-19T01:03:45.820Z,5.22
2019-02-19T01:04:45.813Z,5.23
2019-02-19T01:05:45.800Z,5.14
2019-02-19T01:06:45.820Z,5.09
2019-02-19T01:07:45.793Z,5.14
2019-02-19T01:08:45.771Z,5.15
2019-02-19T01:09:45.762Z,5.05
2019-02-19T01:10:45.773Z,5.11
2019-02-19T01:11:45.729Z,5.01
2019-02-19T01:12:45.751Z,5.15
2019-02-19T01:13:45.712Z,5.12
2019-02-19T01:14:45.698Z,5.12
2019-02-19T01:15:45.694Z,5.15
2019-02-19T01:16:45.691Z,5.17
2019-02-19T01:17:45.665Z,5.09
2019-02-19T01:18:45.679Z,5.11
2019-02-19T01:19:45.711Z,5.02
2019-02-19T01:20:46.015Z,5.02
2019-02-19T01:21:45.649Z,5.08
2019-02-19T01:22:45.644Z,5.08
2019-02-19T01:23:45.608Z,5.02
2019-02-19T01:24:45.609Z,5.01
2019-02-19T01:25:45.622Z,4.99
2019-02-19T01:26:45.581Z,4.94
2019-02-19T01:27:45.572Z,4.97
2019-02-19T01:28:45.572Z,4.96
2019-02-19T01:29:45.549Z,4.97
2019-02-19T01:30:45.546Z,5.01
2019-02-19T01:31:45.540Z,4.96
2019-02-19T01:32:45.513Z,4.93
2019-02-19T01:33:45.508Z,4.90
2019-02-19T01:34:45.514Z,4.90
2019-02-19T01:35:45.484Z,4.91
2019-02-19T01:36:45.516Z,4.91
2019-02-19T01:37:45.457Z,4.87
2019-02-19T01:38:45.451Z,4.91
2019-02-19T01:39:45.450Z,4.88
2019-02-19T01:40:45.438Z,4.90
2019-02-19T01:41:45.427Z,4.93
2019-02-19T01:42:45.433Z,4.87
2019-02-19T01:43:45.397Z,4.96
2019-02-19T01:44:45.395Z,4.90
2019-02-19T01:45:45.372Z,4.93
2019-02-19T01:46:45.395Z,4.91
2019-02-19T01:47:45.361Z,4.86
2019-02-19T01:48:45.355Z,4.80
2019-02-19T01:49:45.331Z,4.87
2019-02-19T01:50:45.320Z,4.91
2019-02-19T01:51:45.320Z,4.94
2019-02-19T01:52:45.340Z,4.90
2019-02-19T01:53:45.304Z,4.93
2019-02-19T01:54:45.293Z,4.88
2019-02-19T01:55:45.269Z,4.96
2019-02-19T01:56:45.255Z,4.97
2019-02-19T01:57:45.248Z,4.96
2019-02-19T01:58:45.256Z,4.99
2019-02-19T01:59:45.242Z,4.97
2019-02-19T02:00:45.223Z,5.06
2019-02-19T02:01:45.215Z,4.94
2019-02-19T02:02:45.205Z,4.96
2019-02-19T02:03:45.210Z,4.97
2019-02-19T02:04:45.172Z,4.96
2019-02-19T02:05:45.176Z,4.90
2019-02-19T02:06:45.157Z,5.01
2019-02-19T02:07:45.143Z,4.87
2019-02-19T02:08:45.163Z,5.01
2019-02-19T02:09:45.123Z,4.97
2019-02-19T02:10:45.114Z,4.97
2019-02-19T02:11:45.113Z,5.06
2019-02-19T02:12:45.097Z,4.91
2019-02-19T02:13:45.542Z,4.90
2019-02-19T02:14:45.073Z,4.87
2019-02-19T02:15:45.060Z,4.86
2019-02-19T02:16:45.060Z,4.75
2019-02-19T02:17:45.037Z,4.80
2019-02-19T02:18:45.032Z,4.84
2019-02-19T02:19:45.043Z,4.94
2019-02-19T02:20:45.012Z,4.90
2019-02-19T02:21:45.004Z,4.96
2019-02-19T02:22:44.986Z,4.96
2019-02-19T02:23:45.022Z,4.87
2019-02-19T02:24:44.976Z,4.80
2019-02-19T02:25:44.963Z,4.94
2019-02-19T02:26:44.947Z,4.90
2019-02-19T02:27:44.944Z,4.94
2019-02-19T02:28:44.922Z,4.83
2019-02-19T02:29:44.955Z,4.88
2019-02-19T02:30:44.909Z,4.79
2019-02-19T02:31:44.896Z,4.86
2019-02-19T02:32:44.886Z,4.75
2019-02-19T02:33:44.889Z,4.75
2019-02-19T02:34:44.883Z,4.83
2019-02-19T02:35:44.868Z,4.72
2019-02-19T02:36:44.847Z,4.74
2019-02-19T02:37:44.833Z,4.79
2019-02-19T02:38:44.832Z,4.67
2019-02-19T02:39:44.812Z,4.68
2019-02-19T02:40:44.826Z,4.65
2019-02-19T02:41:44.815Z,4.75
2019-02-19T02:42:44.770Z,4.62
2019-02-19T02:43:44.782Z,4.59
2019-02-19T02:44:44.758Z,4.67
2019-02-19T02:45:52.816Z,4.64
2019-02-19T02:46:45.757Z,4.72
2019-02-19T02:47:44.723Z,4.67
2019-02-19T02:48:44.711Z,4.71
2019-02-19T02:49:44.701Z,4.67
2019-02-19T02:50:44.696Z,4.69
2019-02-19T02:51:44.710Z,4.71
2019-02-19T02:52:44.674Z,4.80
2019-02-19T02:53:44.658Z,4.65
2019-02-19T02:54:44.647Z,4.75
2019-02-19T02:55:44.649Z,4.69
2019-02-19T02:56:44.634Z,4.74
2019-02-19T02:57:44.650Z,4.77
2019-02-19T02:58:44.619Z,4.75
2019-02-19T02:59:44.601Z,4.77
2019-02-19T03:00:44.584Z,4.74
2019-02-19T03:01:44.626Z,4.77
2019-02-19T03:02:44.564Z,4.64
2019-02-19T03:03:44.586Z,4.69
2019-02-19T03:04:44.548Z,4.67
2019-02-19T03:05:44.542Z,4.68
2019-02-19T03:06:44.528Z,4.71
2019-02-19T03:07:44.517Z,4.71
2019-02-19T03:08:44.543Z,4.74
2019-02-19T03:09:44.497Z,4.64
2019-02-19T03:10:44.491Z,4.65
2019-02-19T03:11:44.469Z,4.62
2019-02-19T03:12:44.467Z,4.65
2019-02-19T03:13:44.477Z,4.65
2019-02-19T03:14:44.440Z,4.57
2019-02-19T03:15:44.437Z,4.68
2019-02-19T03:16:44.422Z,4.68
2019-02-19T03:17:44.421Z,4.77
2019-02-19T03:18:44.399Z,4.79
2019-02-19T03:19:44.416Z,4.77
2019-02-19T03:20:44.385Z,4.77
2019-02-19T03:21:44.367Z,4.91
2019-02-19T03:22:44.359Z,4.94
2019-02-19T03:23:44.366Z,4.91
2019-02-19T03:24:44.346Z,4.94
2019-02-19T03:25:44.353Z,4.97
2019-02-19T03:26:44.318Z,5.02
2019-02-19T03:27:44.309Z,4.97
2019-02-19T03:28:44.304Z,4.97
2019-02-19T03:29:44.286Z,5.04
2019-02-19T03:30:44.279Z,5.02
2019-02-19T03:31:44.529Z,4.99
2019-02-19T03:32:44.260Z,4.99
2019-02-19T03:33:44.281Z,5.04
2019-02-19T03:34:44.250Z,5.05
2019-02-19T03:35:44.229Z,5.08
2019-02-19T03:36:44.210Z,5.11
2019-02-19T03:37:44.227Z,5.11
2019-02-19T03:38:44.219Z,5.02
2019-02-19T03:39:44.174Z,5.12
2019-02-19T03:40:44.195Z,5.11
2019-02-19T03:41:44.160Z,5.09
2019-02-19T03:42:44.151Z,5.02
2019-02-19T03:43:44.142Z,5.08
2019-02-19T03:44:44.120Z,5.04
2019-02-19T03:45:44.138Z,5.05
2019-02-19T03:46:44.100Z,5.06
2019-02-19T03:47:44.107Z,5.17
2019-02-19T03:48:44.089Z,5.09
2019-02-19T03:49:44.101Z,5.19
2019-02-19T03:50:44.068Z,5.17
2019-02-19T03:51:44.072Z,5.17
2019-02-19T03:52:44.036Z,5.20
2019-02-19T03:53:44.036Z,5.22
2019-02-19T03:54:44.019Z,5.26
2019-02-19T03:55:44.038Z,5.23
2019-02-19T03:56:44.007Z,5.29
2019-02-19T03:57:43.988Z,5.35
2019-02-19T03:58:43.978Z,5.32
2019-02-19T03:59:43.970Z,5.40
2019-02-19T04:00:43.967Z,5.40
2019-02-19T04:01:43.977Z,5.44
2019-02-19T04:02:43.938Z,5.49
2019-02-19T04:03:43.921Z,5.49
2019-02-19T04:04:43.919Z,5.52
2019-02-19T04:05:43.899Z,5.60
2019-02-19T04:06:44.044Z,5.63
2019-02-19T04:07:43.890Z,5.66
2019-02-19T04:08:43.879Z,5.51
2019-02-19T04:09:43.873Z,5.66
2019-02-19T04:10:43.857Z,5.51
2019-02-19T04:11:43.838Z,5.59
2019-02-19T04:12:43.847Z,5.63
2019-02-19T04:13:43.823Z,5.60
2019-02-19T04:14:43.820Z,5.74
2019-02-19T04:15:43.857Z,5.58
2019-02-19T04:16:43.791Z,5.52
2019-02-19T04:17:43.798Z,5.59
2019-02-19T04:18:43.763Z,5.62
2019-02-19T04:19:43.771Z,5.55
2019-02-19T04:20:43.780Z,5.65
2019-02-19T04:21:43.750Z,5.69
2019-02-19T04:22:43.745Z,5.73
2019-02-19T04:23:43.715Z,5.65
2019-02-19T04:24:43.717Z,5.70
2019-02-19T04:25:43.695Z,5.63
2019-02-19T04:26:43.689Z,5.65
2019-02-19T04:27:43.699Z,5.67
2019-02-19T04:28:43.684Z,5.73
2019-02-19T04:29:43.649Z,5.62
2019-02-19T04:30:43.640Z,5.65
2019-02-19T04:31:43.642Z,5.67
2019-02-19T04:32:43.668Z,5.65
2019-02-19T04:33:43.613Z,5.77
2019-02-19T04:34:43.616Z,5.78
2019-02-19T04:35:43.583Z,5.63
2019-02-19T04:36:43.584Z,5.70
2019-02-19T04:37:43.588Z,5.65
2019-02-19T04:38:43.593Z,5.67
2019-02-19T04:39:43.553Z,5.67
2019-02-19T04:40:43.543Z,5.69
2019-02-19T04:41:43.525Z,5.60
2019-02-19T04:42:43.517Z,5.69
2019-02-19T04:43:43.529Z,5.69
2019-02-19T04:44:43.499Z,5.63
2019-02-19T04:45:43.518Z,5.65
2019-02-19T04:46:43.485Z,5.73
2019-02-19T04:47:43.458Z,5.69
2019-02-19T04:48:43.452Z,5.65
2019-02-19T04:49:43.435Z,5.70
2019-02-19T04:50:43.468Z,5.69
2019-02-19T04:51:43.428Z,5.67
2019-02-19T04:52:43.419Z,5.63
2019-02-19T04:53:43.404Z,5.67
2019-02-19T04:54:43.395Z,5.69
2019-02-19T04:55:43.398Z,5.70
2019-02-19T04:56:43.376Z,5.74
2019-02-19T04:57:43.354Z,5.70
2019-02-19T04:58:43.399Z,5.73
2019-02-19T04:59:43.342Z,5.67
2019-02-19T05:00:43.353Z,5.65
2019-02-19T05:01:43.310Z,5.77
2019-02-19T05:02:43.304Z,5.74
2019-02-19T05:03:43.300Z,5.63
2019-02-19T05:04:43.289Z,5.65
2019-02-19T05:05:43.307Z,5.59
2019-02-19T05:06:43.266Z,5.69
2019-02-19T05:07:43.259Z,5.70
2019-02-19T05:08:44.640Z,5.73
2019-02-19T05:09:43.255Z,5.65
2019-02-19T05:10:43.244Z,5.62
2019-02-19T05:11:43.216Z,5.66
2019-02-19T05:12:43.206Z,5.58
2019-02-19T05:13:43.198Z,5.52
2019-02-19T05:14:43.184Z,5.63
2019-02-19T05:15:43.189Z,5.60
2019-02-19T05:16:43.160Z,5.55
2019-02-19T05:17:43.170Z,5.59
2019-02-19T05:18:43.142Z,5.66
2019-02-19T05:19:43.129Z,5.55
2019-02-19T05:20:43.133Z,5.60
2019-02-19T05:21:43.104Z,5.55
2019-02-19T05:22:43.104Z,5.60
2019-02-19T05:23:43.097Z,5.60
2019-02-19T05:24:43.078Z,5.55
2019-02-19T05:25:43.089Z,5.49
2019-02-19T05:26:43.075Z,5.55
2019-02-19T05:27:43.043Z,5.58
2019-02-19T05:28:43.032Z,5.47
2019-02-19T05:29:43.024Z,5.47
2019-02-19T05:30:43.178Z,5.48
2019-02-19T05:31:43.010Z,5.48
2019-02-19T05:32:43.009Z,5.41
2019-02-19T05:33:42.991Z,5.41
2019-02-19T05:34:42.968Z,5.40
2019-02-19T05:35:43.005Z,5.42
2019-02-19T05:36:42.958Z,5.41
2019-02-19T05:37:42.950Z,5.44
2019-02-19T05:38:42.941Z,5.45
2019-02-19T05:39:42.933Z,5.38
2019-02-19T05:40:42.914Z,5.41
2019-02-19T05:41:42.929Z,5.38
2019-02-19T05:42:42.887Z,5.35
2019-02-19T05:43:42.884Z,5.38
2019-02-19T05:44:42.962Z,5.40
2019-02-19T05:45:42.858Z,5.37
2019-02-19T05:46:49.653Z,5.41
2019-02-19T05:47:43.846Z,5.26
2019-02-19T05:48:42.821Z,5.37
2019-02-19T05:49:42.826Z,5.33
2019-02-19T05:50:42.805Z,5.30
2019-02-19T05:51:42.797Z,5.29
2019-02-19T05:52:42.848Z,5.44
2019-02-19T05:53:44.814Z,5.35
2019-02-19T05:54:42.759Z,5.35
2019-02-19T05:55:42.756Z,5.42
2019-02-19T05:56:42.757Z,5.38
2019-02-19T05:57:42.742Z,5.41
2019-02-19T05:58:42.740Z,5.40
2019-02-19T05:59:42.701Z,5.42
2019-02-19T06:00:42.699Z,5.47
2019-02-19T06:01:42.683Z,5.45
2019-02-19T06:02:42.674Z,5.47
2019-02-19T06:03:42.689Z,5.45
2019-02-19T06:04:42.659Z,5.45
2019-02-19T06:05:42.640Z,5.58
2019-02-19T06:06:42.628Z,5.56
2019-02-19T06:07:42.627Z,5.60
2019-02-19T06:08:42.640Z,5.60
2019-02-19T06:09:42.652Z,5.52
2019-02-19T06:10:44.137Z,5.51
2019-02-19T06:11:42.598Z,5.59
2019-02-19T06:12:42.577Z,5.59
2019-02-19T06:13:42.580Z,5.52
2019-02-19T06:14:42.550Z,5.59
2019-02-19T06:15:42.576Z,5.52
2019-02-19T06:16:42.535Z,5.55
2019-02-19T06:17:42.526Z,5.59
2019-02-19T06:18:42.520Z,5.56
2019-02-19T06:19:42.524Z,5.63
2019-02-19T06:20:42.488Z,5.66
2019-02-19T06:21:42.502Z,5.60
2019-02-19T06:22:42.473Z,5.73
2019-02-19T06:23:42.475Z,5.66
2019-02-19T06:24:42.442Z,5.66
2019-02-19T06:25:42.510Z,5.70
2019-02-19T06:26:42.450Z,5.70
2019-02-19T06:27:42.424Z,5.69
2019-02-19T06:28:42.403Z,5.67
2019-02-19T06:29:42.396Z,5.70
2019-02-19T06:30:42.381Z,5.70
2019-02-19T06:31:42.364Z,5.69
2019-02-19T06:32:42.376Z,5.66
2019-02-19T06:33:42.347Z,5.77
2019-02-19T06:34:42.338Z,5.70
2019-02-19T06:35:42.342Z,5.74
2019-02-19T06:36:42.354Z,5.78
2019-02-19T06:37:42.305Z,5.69
2019-02-19T06:38:43.031Z,5.78
2019-02-19T06:39:42.293Z,5.74
2019-02-19T06:40:42.290Z,5.78
2019-02-19T06:41:42.293Z,5.80
2019-02-19T06:42:42.314Z,5.81
2019-02-19T06:43:42.247Z,5.73
2019-02-19T06:44:42.236Z,5.75
2019-02-19T06:45:42.226Z,5.78
2019-02-19T06:46:42.249Z,5.80
2019-02-19T06:47:42.218Z,5.81
2019-02-19T06:48:42.204Z,5.87
2019-02-19T06:49:42.187Z,5.96
2019-02-19T06:50:42.179Z,6.03
2019-02-19T06:51:42.180Z,5.90
2019-02-19T06:52:42.149Z,5.98
2019-02-19T06:53:42.150Z,5.99
2019-02-19T06:54:42.134Z,6.10
2019-02-19T06:55:42.122Z,6.08
2019-02-19T06:56:42.132Z,6.08
2019-02-19T06:57:42.112Z,6.16
2019-02-19T06:58:42.086Z,6.17
2019-02-19T06:59:42.080Z,6.20
2019-02-19T07:00:42.074Z,6.21
2019-02-19T07:01:42.077Z,6.19
2019-02-19T07:02:42.047Z,6.28
2019-02-19T07:03:42.038Z,6.40
2019-02-19T07:04:42.024Z,6.50
2019-02-19T07:05:42.012Z,6.72
2019-02-19T07:06:42.021Z,7.07
2019-02-19T07:07:42.000Z,7.24
2019-02-19T07:08:41.986Z,7.36
2019-02-19T07:09:41.986Z,7.39
2019-02-19T07:10:41.996Z,7.29
2019-02-19T07:11:41.971Z,7.34
2019-02-19T07:12:41.948Z,7.14
2019-02-19T07:13:41.965Z,7.04
2019-02-19T07:14:41.923Z,7.09
2019-02-19T07:15:41.929Z,7.18
2019-02-19T07:16:41.900Z,7.12
2019-02-19T07:17:41.883Z,7.33
2019-02-19T07:18:41.890Z,7.73
2019-02-19T07:19:41.875Z,7.95
2019-02-19T07:20:41.861Z,8.09
2019-02-19T07:21:41.867Z,8.17
2019-02-19T07:22:41.841Z,8.00
2019-02-19T07:23:41.816Z,7.99
2019-02-19T07:24:41.807Z,7.96
2019-02-19T07:25:42.546Z,7.94
2019-02-19T07:26:41.795Z,7.95
2019-02-19T07:27:41.811Z,7.89
2019-02-19T07:28:41.772Z,7.84
2019-02-19T07:29:41.755Z,7.94
2019-02-19T07:30:41.746Z,7.77
2019-02-19T07:31:41.740Z,7.74
2019-02-19T07:32:41.759Z,7.81
2019-02-19T07:33:41.712Z,7.74
2019-02-19T07:34:41.706Z,7.67
2019-02-19T07:35:41.699Z,7.66
2019-02-19T07:36:41.692Z,7.50
2019-02-19T07:37:41.676Z,7.47
2019-02-19T07:38:41.682Z,7.51
2019-02-19T07:39:41.676Z,7.63
2019-02-19T07:40:41.636Z,7.84
2019-02-19T07:41:41.638Z,7.86
2019-02-19T07:42:41.623Z,7.91
2019-02-19T07:43:41.642Z,7.92
2019-02-19T07:44:41.608Z,7.84
2019-02-19T07:45:41.584Z,7.79
2019-02-19T07:46:41.575Z,7.84
2019-02-19T07:47:41.568Z,7.82
2019-02-19T07:48:41.579Z,7.74
2019-02-19T07:49:41.583Z,7.74
2019-02-19T07:50:41.548Z,7.55
2019-02-19T07:51:42.748Z,7.47
2019-02-19T07:52:41.513Z,7.48
2019-02-19T07:53:41.503Z,7.45
2019-02-19T07:54:41.518Z,7.45
2019-02-19T07:55:41.502Z,7.45
2019-02-19T07:56:41.489Z,7.47
2019-02-19T07:57:42.899Z,7.47
2019-02-19T07:58:41.451Z,7.47
2019-02-19T07:59:41.460Z,7.51
2019-02-19T08:00:41.462Z,7.55
2019-02-19T08:01:41.433Z,7.52
2019-02-19T08:02:41.409Z,7.58
2019-02-19T08:03:41.394Z,7.73
2019-02-19T08:04:41.380Z,7.76
2019-02-19T08:05:41.407Z,7.79
2019-02-19T08:06:41.362Z,7.84
2019-02-19T08:07:41.358Z,7.88
2019-02-19T08:08:41.347Z,7.79
2019-02-19T08:09:41.338Z,7.89
2019-02-19T08:10:41.326Z,7.76
2019-02-19T08:11:41.336Z,7.82
2019-02-19T08:12:41.301Z,7.92
2019-02-19T08:13:41.304Z,7.86
2019-02-19T08:14:41.283Z,7.92
2019-02-19T08:15:41.271Z,7.89
2019-02-19T08:16:41.255Z,8.07
2019-02-19T08:17:41.267Z,7.96
2019-02-19T08:18:41.299Z,8.10
2019-02-19T08:19:41.243Z,8.10
2019-02-19T08:20:41.224Z,8.25
2019-02-19T08:21:41.221Z,8.25
2019-02-19T08:22:41.197Z,8.24
2019-02-19T08:23:41.180Z,8.31
2019-02-19T08:24:41.202Z,8.40
2019-02-19T08:25:42.012Z,8.45
2019-02-19T08:26:41.147Z,8.46
2019-02-19T08:27:41.147Z,8.71
2019-02-19T08:28:41.138Z,8.78
2019-02-19T08:29:41.116Z,8.75
2019-02-19T08:30:41.123Z,8.82
2019-02-19T08:31:41.100Z,8.89
2019-02-19T08:32:41.092Z,8.88
2019-02-19T08:33:41.089Z,8.88
2019-02-19T08:34:41.091Z,8.89
2019-02-19T08:35:41.053Z,8.93
2019-02-19T08:36:41.046Z,9.22
2019-02-19T08:37:41.028Z,9.35
2019-02-19T08:38:42.964Z,9.48
2019-02-19T08:39:41.067Z,9.37
2019-02-19T08:40:41.017Z,9.35
2019-02-19T08:41:40.997Z,9.44
2019-02-19T08:42:40.988Z,9.37
2019-02-19T08:43:40.970Z,9.37
2019-02-19T08:44:40.957Z,9.41
2019-02-19T08:45:40.971Z,9.41
2019-02-19T08:46:40.939Z,9.42
2019-02-19T08:47:42.888Z,9.48
2019-02-19T08:48:40.911Z,9.50
2019-02-19T08:49:40.906Z,9.45
2019-02-19T08:50:40.913Z,9.35
2019-02-19T08:51:40.889Z,9.20
2019-02-19T08:52:40.880Z,9.13
2019-02-19T08:53:40.868Z,9.04
2019-02-19T08:54:40.859Z,9.00
2019-02-19T08:55:40.858Z,9.04
2019-02-19T08:56:40.837Z,8.93
2019-02-19T08:57:40.817Z,8.75
2019-02-19T08:58:40.809Z,8.88
2019-02-19T08:59:40.818Z,8.89
2019-02-19T09:00:40.814Z,8.89
2019-02-19T09:01:40.775Z,9.03
2019-02-19T09:02:40.775Z,9.30
2019-02-19T09:03:40.760Z,9.49
2019-02-19T09:04:40.753Z,9.88
2019-02-19T09:05:40.762Z,9.95
2019-02-19T09:06:40.740Z,9.99
2019-02-19T09:07:40.716Z,10.32
2019-02-19T09:08:40.721Z,10.24
2019-02-19T09:09:40.695Z,10.26
2019-02-19T09:10:40.702Z,10.43
2019-02-19T09:11:40.703Z,10.35
2019-02-19T09:12:40.667Z,10.18
2019-02-19T09:13:40.655Z,10.07
2019-02-19T09:14:40.645Z,9.98
2019-02-19T09:15:40.644Z,9.81
2019-02-19T09:16:40.616Z,9.81
2019-02-19T09:17:40.611Z,9.81
2019-02-19T09:18:40.601Z,9.89
2019-02-19T09:19:40.590Z,9.85
2019-02-19T09:20:40.593Z,10.02
2019-02-19T09:21:40.565Z,10.28
2019-02-19T09:22:40.559Z,10.20
2019-02-19T09:23:42.305Z,10.28
2019-02-19T09:24:40.538Z,10.29
2019-02-19T09:25:40.593Z,10.24
2019-02-19T09:26:40.512Z,10.14
2019-02-19T09:27:40.503Z,10.04
2019-02-19T09:28:40.487Z,9.96
2019-02-19T09:29:40.475Z,9.99
2019-02-19T09:30:40.481Z,9.91
2019-02-19T09:31:40.460Z,9.93
2019-02-19T09:32:40.494Z,9.95
2019-02-19T09:33:40.433Z,9.98
2019-02-19T09:34:40.427Z,9.98
2019-02-19T09:35:40.435Z,9.88
2019-02-19T09:36:40.418Z,9.85
2019-02-19T09:37:40.395Z,9.81
2019-02-19T09:38:40.390Z,9.77
2019-02-19T09:39:40.373Z,9.74
2019-02-19T09:40:40.377Z,9.68
2019-02-19T09:41:40.346Z,9.63
2019-02-19T09:42:40.337Z,9.50
2019-02-19T09:43:40.333Z,9.59
2019-02-19T09:44:40.335Z,9.63
2019-02-19T09:45:40.334Z,9.67
2019-02-19T09:46:40.305Z,9.70
2019-02-19T09:47:40.286Z,9.65
2019-02-19T09:48:40.279Z,9.67
2019-02-19T09:49:40.276Z,9.62
2019-02-19T09:50:40.278Z,9.65
2019-02-19T09:51:40.243Z,9.58
2019-02-19T09:52:40.254Z,9.50
2019-02-19T09:53:40.225Z,9.56
2019-02-19T09:54:40.219Z,9.58
2019-02-19T09:55:40.236Z,9.53
2019-02-19T09:56:40.196Z,9.50
2019-02-19T09:57:40.198Z,9.63
2019-02-19T09:58:40.185Z,9.85
2019-02-19T09:59:40.164Z,9.86
2019-02-19T10:00:40.176Z,9.80
2019-02-19T10:01:40.140Z,9.80
2019-02-19T10:02:40.151Z,9.86
2019-02-19T10:03:40.128Z,9.92
2019-02-19T10:04:40.123Z,9.86
2019-02-19T10:05:40.112Z,9.81
2019-02-19T10:06:40.084Z,9.83
2019-02-19T10:07:40.078Z,9.78
2019-02-19T10:08:40.074Z,9.89
2019-02-19T10:09:40.581Z,9.77
2019-02-19T10:10:40.093Z,9.73
2019-02-19T10:11:40.037Z,9.86
2019-02-19T10:12:40.021Z,9.71
2019-02-19T10:13:40.014Z,9.71
2019-02-19T10:14:40.000Z,9.62
2019-02-19T10:15:40.010Z,9.60
2019-02-19T10:16:41.870Z,9.63
2019-02-19T10:17:39.975Z,9.67
2019-02-19T10:18:39.960Z,9.67
2019-02-19T10:19:39.958Z,9.62
2019-02-19T10:20:39.966Z,9.59
2019-02-19T10:21:39.934Z,9.50
2019-02-19T10:22:39.921Z,9.56
2019-02-19T10:23:39.909Z,9.55
2019-02-19T10:24:39.895Z,9.58
2019-02-19T10:25:39.895Z,9.60
2019-02-19T10:26:40.756Z,9.63
2019-02-19T10:27:39.874Z,9.70
2019-02-19T10:28:39.858Z,9.85
2019-02-19T10:29:39.856Z,9.91
2019-02-19T10:30:39.833Z,9.86
2019-02-19T10:31:39.840Z,9.85
2019-02-19T10:32:39.808Z,9.83
2019-02-19T10:33:39.826Z,9.78
2019-02-19T10:34:39.787Z,9.68
2019-02-19T10:35:39.802Z,9.77
2019-02-19T10:36:39.775Z,9.71
2019-02-19T10:37:39.758Z,9.74
2019-02-19T10:38:39.747Z,9.74
2019-02-19T10:39:39.767Z,9.70
2019-02-19T10:40:39.739Z,9.73
2019-02-19T10:41:39.718Z,9.65
2019-02-19T10:42:39.708Z,9.67
2019-02-19T10:43:39.690Z,9.63
2019-02-19T10:44:39.679Z,9.63
2019-02-19T10:45:39.690Z,9.80
2019-02-19T10:46:39.660Z,9.74
2019-02-19T10:47:39.655Z,9.91
2019-02-19T10:48:39.720Z,9.88
2019-02-19T10:49:39.635Z,9.77
2019-02-19T10:50:39.631Z,9.74
2019-02-19T10:51:39.607Z,9.80
2019-02-19T10:52:39.599Z,9.88
2019-02-19T10:53:39.596Z,9.85
2019-02-19T10:54:39.618Z,9.88
2019-02-19T10:55:39.563Z,9.89
2019-02-19T10:56:39.561Z,10.07
2019-02-19T10:57:39.561Z,10.09
2019-02-19T10:58:39.536Z,10.04
2019-02-19T10:59:39.530Z,9.99
2019-02-19T11:00:40.113Z,10.06
2019-02-19T11:01:39.508Z,9.98
2019-02-19T11:02:39.528Z,9.96
2019-02-19T11:03:39.477Z,9.95
2019-02-19T11:04:40.036Z,9.99
2019-02-19T11:05:39.458Z,10.07
2019-02-19T11:06:39.461Z,10.14
2019-02-19T11:07:39.442Z,10.24
2019-02-19T11:08:39.449Z,10.31
2019-02-19T11:09:39.634Z,10.20
2019-02-19T11:10:39.419Z,10.24
2019-02-19T11:11:39.400Z,10.25
2019-02-19T11:12:39.390Z,10.29
2019-02-19T11:13:39.381Z,10.22
2019-02-19T11:14:39.377Z,10.35
2019-02-19T11:15:39.384Z,10.43
2019-02-19T11:16:39.351Z,10.55
2019-02-19T11:17:39.330Z,10.63
2019-02-19T11:18:39.318Z,10.36
2019-02-19T11:19:39.331Z,10.34
2019-02-19T11:20:39.300Z,10.42
2019-02-19T11:21:39.321Z,10.51
2019-02-19T11:22:39.289Z,10.57
2019-02-19T11:23:39.304Z,10.55
2019-02-19T11:24:39.251Z,10.54
2019-02-19T11:25:39.246Z,10.47
2019-02-19T11:26:39.255Z,10.46
2019-02-19T11:27:39.228Z,10.63
2019-02-19T11:28:41.061Z,10.60
2019-02-19T11:29:39.214Z,10.66
2019-02-19T11:30:39.190Z,10.63
2019-02-19T11:31:39.203Z,10.65
2019-02-19T11:32:39.175Z,10.83
2019-02-19T11:33:39.183Z,10.86
2019-02-19T11:34:39.154Z,10.83
2019-02-19T11:35:39.133Z,10.76
2019-02-19T11:36:39.121Z,10.72
2019-02-19T11:37:39.133Z,10.87
2019-02-19T11:38:39.119Z,10.83
2019-02-19T11:39:39.097Z,10.84
2019-02-19T11:40:39.092Z,10.84
2019-02-19T11:41:39.071Z,10.83
2019-02-19T11:42:39.062Z,10.90
2019-02-19T11:43:39.077Z,10.91
2019-02-19T11:44:39.043Z,10.93
2019-02-19T11:45:39.034Z,10.90
2019-02-19T11:46:39.022Z,10.81
2019-02-19T11:47:39.004Z,10.65
2019-02-19T11:48:39.013Z,10.57
2019-02-19T11:49:38.984Z,10.51
2019-02-19T11:50:39.005Z,10.54
2019-02-19T11:51:38.975Z,10.52
2019-02-19T11:52:38.958Z,10.58
2019-02-19T11:53:38.949Z,10.57
2019-02-19T11:54:38.938Z,10.57
2019-02-19T11:55:38.919Z,10.44
2019-02-19T11:56:38.931Z,10.32
2019-02-19T11:57:38.914Z,10.28
2019-02-19T11:58:38.896Z,10.20
2019-02-19T11:59:38.881Z,10.26
2019-02-19T12:00:38.886Z,10.18
2019-02-19T12:01:38.879Z,10.11
2019-02-19T12:02:38.843Z,10.06
2019-02-19T12:03:38.853Z,10.09
2019-02-19T12:04:38.829Z,10.16
2019-02-19T12:05:38.848Z,10.14
2019-02-19T12:06:38.831Z,10.11
2019-02-19T12:07:38.787Z,10.13
2019-02-19T12:08:39.475Z,10.18
2019-02-19T12:09:38.765Z,10.28
2019-02-19T12:10:38.755Z,10.39
2019-02-19T12:11:38.779Z,10.35
2019-02-19T12:12:38.746Z,10.62
2019-02-19T12:13:38.727Z,10.65
2019-02-19T12:14:38.720Z,10.80
2019-02-19T12:15:38.729Z,10.91
2019-02-19T12:16:38.729Z,11.21
2019-02-19T12:17:38.688Z,11.31
2019-02-19T12:18:45.979Z,11.26
2019-02-19T12:19:39.658Z,11.36
2019-02-19T12:20:38.661Z,11.44
2019-02-19T12:21:38.636Z,11.59
2019-02-19T12:22:38.650Z,11.59
2019-02-19T12:23:38.641Z,11.70
2019-02-19T12:24:38.612Z,11.41
2019-02-19T12:25:38.600Z,11.35
2019-02-19T12:26:38.592Z,11.16
2019-02-19T12:27:38.592Z,11.12
2019-02-19T12:28:38.561Z,11.05
2019-02-19T12:29:38.621Z,11.03
2019-02-19T12:30:38.578Z,11.02
2019-02-19T12:31:38.535Z,10.91
2019-02-19T12:32:38.567Z,10.83
2019-02-19T12:33:38.510Z,10.80
2019-02-19T12:34:38.511Z,10.91
2019-02-19T12:35:38.524Z,10.98
2019-02-19T12:36:38.484Z,11.03
2019-02-19T12:37:38.474Z,11.09
2019-02-19T12:38:38.465Z,11.11
2019-02-19T12:39:38.445Z,11.01
2019-02-19T12:40:38.435Z,11.03
2019-02-19T12:41:38.457Z,10.98
2019-02-19T12:42:38.417Z,10.95
2019-02-19T12:43:38.408Z,11.08
2019-02-19T12:44:38.396Z,11.06
2019-02-19T12:45:38.382Z,10.98
2019-02-19T12:46:38.377Z,11.02
2019-02-19T12:47:38.393Z,11.05
2019-02-19T12:48:38.365Z,11.01
2019-02-19T12:49:38.347Z,10.94
2019-02-19T12:50:38.339Z,10.88
2019-02-19T12:51:38.325Z,10.86
2019-02-19T12:52:38.330Z,10.86
2019-02-19T12:53:38.324Z,10.87
2019-02-19T12:54:38.306Z,11.01
2019-02-19T12:55:38.316Z,11.05
2019-02-19T12:56:38.273Z,11.03
2019-02-19T12:57:38.264Z,10.98
2019-02-19T12:58:38.267Z,10.88
2019-02-19T12:59:38.236Z,10.91
2019-02-19T13:00:38.242Z,10.80
2019-02-19T13:01:38.216Z,10.84
2019-02-19T13:02:38.207Z,10.88
2019-02-19T13:03:38.190Z,10.88
2019-02-19T13:04:38.181Z,10.93
2019-02-19T13:05:38.648Z,10.98
2019-02-19T13:06:38.156Z,10.94
2019-02-19T13:07:38.158Z,10.91
2019-02-19T13:08:38.142Z,10.90
2019-02-19T13:09:38.131Z,10.84
2019-02-19T13:10:38.155Z,10.88
2019-02-19T13:11:38.121Z,10.95
2019-02-19T13:12:38.098Z,10.99
2019-02-19T13:13:38.087Z,11.03